sensor_id;sensor_type;location;lat;lon;timestamp;P1;durP1;ratioP1;P2;durP2;ratioP2
1306;SDS011;646;48.696;9.114;2022-12-07T00:00:39;9.30;;;6.10;;
1306;SDS011;646;48.696;9.114;2022-12-07T00:03:05;5.90;;;5.30;;
1306;SDS011;646;48.696;9.114;2022-12-07T00:05:30;5.47;;;4.67;;
1306;SDS011;646;48.696;9.114;2022-12-07T00:07:56;8.13;;;5.10;;
1306;SDS011;646;48.696;9.114;2022-12-07T00:10:21;8.33;;;6.17;;
1306;SDS011;646;48.696;9.114;2022-12-07T00:12:47;8.57;;;6.37;;
1306;SDS011;646;48.696;9.114;2022-12-07T00:15:12;8.17;;;5.17;;
1306;SDS011;646;48.696;9.114;2022-12-07T00:17:38;6.90;;;5.40;;
1306;SDS011;646;48.696;9.114;2022-12-07T00:20:03;8.57;;;6.40;;
1306;SDS011;646;48.696;9.114;2022-12-07T00:22:30;8.80;;;5.63;;
1306;SDS011;646;48.696;9.114;2022-12-07T00:24:55;9.63;;;5.80;;
1306;SDS011;646;48.696;9.114;2022-12-07T00:27:21;6.83;;;5.30;;
1306;SDS011;646;48.696;9.114;2022-12-07T00:29:46;6.93;;;5.17;;
1306;SDS011;646;48.696;9.114;2022-12-07T00:32:12;7.07;;;5.50;;
1306;SDS011;646;48.696;9.114;2022-12-07T00:34:37;6.93;;;5.00;;
1306;SDS011;646;48.696;9.114;2022-12-07T00:37:03;8.60;;;5.80;;
1306;SDS011;646;48.696;9.114;2022-12-07T00:39:28;9.20;;;6.27;;
1306;SDS011;646;48.696;9.114;2022-12-07T00:41:54;6.93;;;5.40;;
1306;SDS011;646;48.696;9.114;2022-12-07T00:44:19;7.87;;;5.83;;
1306;SDS011;646;48.696;9.114;2022-12-07T00:46:45;7.50;;;6.03;;
1306;SDS011;646;48.696;9.114;2022-12-07T00:49:11;7.78;;;5.85;;
1306;SDS011;646;48.696;9.114;2022-12-07T00:51:36;7.97;;;6.03;;
1306;SDS011;646;48.696;9.114;2022-12-07T00:54:02;8.67;;;6.67;;
1306;SDS011;646;48.696;9.114;2022-12-07T00:56:28;10.10;;;6.27;;
1306;SDS011;646;48.696;9.114;2022-12-07T00:58:55;9.70;;;6.95;;
1306;SDS011;646;48.696;9.114;2022-12-07T01:01:22;9.48;;;6.28;;
1306;SDS011;646;48.696;9.114;2022-12-07T01:03:50;8.35;;;6.25;;
1306;SDS011;646;48.696;9.114;2022-12-07T01:06:16;8.50;;;6.50;;
1306;SDS011;646;48.696;9.114;2022-12-07T01:08:43;11.48;;;7.32;;
1306;SDS011;646;48.696;9.114;2022-12-07T01:11:12;12.00;;;8.00;;
1306;SDS011;646;48.696;9.114;2022-12-07T01:13:39;8.65;;;5.93;;
1306;SDS011;646;48.696;9.114;2022-12-07T01:16:06;10.80;;;6.87;;
1306;SDS011;646;48.696;9.114;2022-12-07T01:18:33;9.68;;;6.18;;
1306;SDS011;646;48.696;9.114;2022-12-07T01:21:11;11.60;;;6.63;;
1306;SDS011;646;48.696;9.114;2022-12-07T01:23:38;9.82;;;6.55;;
1306;SDS011;646;48.696;9.114;2022-12-07T01:26:06;7.45;;;6.32;;
1306;SDS011;646;48.696;9.114;2022-12-07T01:28:34;10.57;;;7.32;;
1306;SDS011;646;48.696;9.114;2022-12-07T01:33:31;8.80;;;6.63;;
1306;SDS011;646;48.696;9.114;2022-12-07T01:36:02;11.65;;;8.00;;
1306;SDS011;646;48.696;9.114;2022-12-07T01:38:42;8.85;;;6.10;;
1306;SDS011;646;48.696;9.114;2022-12-07T01:41:08;11.15;;;7.22;;
1306;SDS011;646;48.696;9.114;2022-12-07T01:43:34;11.83;;;8.50;;
1306;SDS011;646;48.696;9.114;2022-12-07T01:46:00;10.57;;;7.35;;
1306;SDS011;646;48.696;9.114;2022-12-07T01:48:32;9.77;;;6.75;;
1306;SDS011;646;48.696;9.114;2022-12-07T01:51:04;10.70;;;7.03;;
1306;SDS011;646;48.696;9.114;2022-12-07T01:53:33;11.85;;;8.13;;
1306;SDS011;646;48.696;9.114;2022-12-07T01:56:05;11.75;;;7.85;;
1306;SDS011;646;48.696;9.114;2022-12-07T01:58:33;11.70;;;8.45;;
1306;SDS011;646;48.696;9.114;2022-12-07T02:00:59;8.35;;;6.20;;
1306;SDS011;646;48.696;9.114;2022-12-07T02:03:30;10.80;;;8.20;;
1306;SDS011;646;48.696;9.114;2022-12-07T02:06:01;11.38;;;7.72;;
1306;SDS011;646;48.696;9.114;2022-12-07T02:08:28;10.25;;;7.88;;
1306;SDS011;646;48.696;9.114;2022-12-07T02:10:54;9.63;;;7.72;;
1306;SDS011;646;48.696;9.114;2022-12-07T02:13:21;11.97;;;7.23;;
1306;SDS011;646;48.696;9.114;2022-12-07T02:19:04;9.18;;;6.82;;
1306;SDS011;646;48.696;9.114;2022-12-07T02:21:58;11.00;;;7.47;;
1306;SDS011;646;48.696;9.114;2022-12-07T02:30:23;11.82;;;7.75;;
1306;SDS011;646;48.696;9.114;2022-12-07T02:33:12;10.65;;;7.32;;
1306;SDS011;646;48.696;9.114;2022-12-07T02:36:04;8.82;;;6.88;;
1306;SDS011;646;48.696;9.114;2022-12-07T02:38:39;10.13;;;7.13;;
1306;SDS011;646;48.696;9.114;2022-12-07T02:41:28;8.38;;;6.28;;
1306;SDS011;646;48.696;9.114;2022-12-07T02:44:02;11.20;;;7.10;;
1306;SDS011;646;48.696;9.114;2022-12-07T02:46:32;7.40;;;5.60;;
1306;SDS011;646;48.696;9.114;2022-12-07T02:49:02;9.52;;;6.82;;
1306;SDS011;646;48.696;9.114;2022-12-07T02:51:29;10.93;;;7.10;;
1306;SDS011;646;48.696;9.114;2022-12-07T02:53:56;9.25;;;6.93;;
1306;SDS011;646;48.696;9.114;2022-12-07T02:56:26;8.33;;;5.53;;
1306;SDS011;646;48.696;9.114;2022-12-07T03:07:27;8.02;;;6.70;;
1306;SDS011;646;48.696;9.114;2022-12-07T03:10:17;9.43;;;6.70;;
1306;SDS011;646;48.696;9.114;2022-12-07T03:13:10;11.52;;;6.50;;
1306;SDS011;646;48.696;9.114;2022-12-07T03:16:45;8.38;;;6.30;;
1306;SDS011;646;48.696;9.114;2022-12-07T03:21:18;10.73;;;6.35;;
1306;SDS011;646;48.696;9.114;2022-12-07T03:23:47;9.10;;;7.40;;
1306;SDS011;646;48.696;9.114;2022-12-07T03:26:16;10.00;;;6.55;;
1306;SDS011;646;48.696;9.114;2022-12-07T03:28:45;8.27;;;6.25;;
1306;SDS011;646;48.696;9.114;2022-12-07T03:31:23;8.05;;;5.40;;
1306;SDS011;646;48.696;9.114;2022-12-07T03:34:06;11.32;;;7.00;;
1306;SDS011;646;48.696;9.114;2022-12-07T03:36:47;7.43;;;5.68;;
1306;SDS011;646;48.696;9.114;2022-12-07T03:42:22;10.65;;;6.47;;
1306;SDS011;646;48.696;9.114;2022-12-07T03:44:48;9.90;;;6.73;;
1306;SDS011;646;48.696;9.114;2022-12-07T03:47:23;8.75;;;5.68;;
1306;SDS011;646;48.696;9.114;2022-12-07T03:49:59;7.25;;;5.50;;
1306;SDS011;646;48.696;9.114;2022-12-07T03:55:17;9.07;;;6.05;;
1306;SDS011;646;48.696;9.114;2022-12-07T03:57:44;9.05;;;6.30;;
1306;SDS011;646;48.696;9.114;2022-12-07T04:00:13;8.13;;;5.40;;
1306;SDS011;646;48.696;9.114;2022-12-07T04:02:39;8.20;;;5.63;;
1306;SDS011;646;48.696;9.114;2022-12-07T04:05:06;9.02;;;6.03;;
1306;SDS011;646;48.696;9.114;2022-12-07T04:07:32;6.93;;;5.65;;
1306;SDS011;646;48.696;9.114;2022-12-07T04:09:58;8.63;;;5.60;;
1306;SDS011;646;48.696;9.114;2022-12-07T04:12:23;8.17;;;6.07;;
1306;SDS011;646;48.696;9.114;2022-12-07T04:14:49;12.30;;;7.40;;
1306;SDS011;646;48.696;9.114;2022-12-07T04:17:14;8.47;;;5.90;;
1306;SDS011;646;48.696;9.114;2022-12-07T04:19:40;8.70;;;5.93;;
1306;SDS011;646;48.696;9.114;2022-12-07T04:22:06;8.10;;;5.13;;
1306;SDS011;646;48.696;9.114;2022-12-07T04:24:32;7.90;;;5.40;;
1306;SDS011;646;48.696;9.114;2022-12-07T04:26:58;8.50;;;7.10;;
1306;SDS011;646;48.696;9.114;2022-12-07T04:29:23;9.23;;;5.73;;
1306;SDS011;646;48.696;9.114;2022-12-07T04:31:50;8.73;;;6.45;;
1306;SDS011;646;48.696;9.114;2022-12-07T04:34:16;9.17;;;6.30;;
1306;SDS011;646;48.696;9.114;2022-12-07T04:36:42;9.85;;;6.05;;
1306;SDS011;646;48.696;9.114;2022-12-07T04:39:18;7.22;;;5.55;;
1306;SDS011;646;48.696;9.114;2022-12-07T04:41:46;12.02;;;5.97;;
1306;SDS011;646;48.696;9.114;2022-12-07T04:44:11;6.97;;;5.70;;
1306;SDS011;646;48.696;9.114;2022-12-07T04:46:39;7.97;;;5.72;;
1306;SDS011;646;48.696;9.114;2022-12-07T04:49:05;7.97;;;6.13;;
1306;SDS011;646;48.696;9.114;2022-12-07T04:51:31;8.37;;;6.10;;
1306;SDS011;646;48.696;9.114;2022-12-07T04:53:56;8.70;;;6.77;;
1306;SDS011;646;48.696;9.114;2022-12-07T04:56:22;8.80;;;6.17;;
1306;SDS011;646;48.696;9.114;2022-12-07T04:58:49;8.80;;;5.70;;
1306;SDS011;646;48.696;9.114;2022-12-07T05:01:16;8.50;;;6.20;;
1306;SDS011;646;48.696;9.114;2022-12-07T05:03:42;8.02;;;5.60;;
1306;SDS011;646;48.696;9.114;2022-12-07T05:06:09;7.47;;;5.65;;
1306;SDS011;646;48.696;9.114;2022-12-07T05:08:35;7.38;;;5.45;;
1306;SDS011;646;48.696;9.114;2022-12-07T05:11:01;8.17;;;5.23;;
1306;SDS011;646;48.696;9.114;2022-12-07T05:13:28;6.47;;;4.97;;
1306;SDS011;646;48.696;9.114;2022-12-07T05:15:53;5.83;;;5.20;;
1306;SDS011;646;48.696;9.114;2022-12-07T05:18:19;6.43;;;5.10;;
1306;SDS011;646;48.696;9.114;2022-12-07T05:20:45;8.83;;;5.30;;
1306;SDS011;646;48.696;9.114;2022-12-07T05:23:11;7.93;;;5.77;;
1306;SDS011;646;48.696;9.114;2022-12-07T05:25:37;8.77;;;6.53;;
1306;SDS011;646;48.696;9.114;2022-12-07T05:28:03;6.30;;;5.20;;
1306;SDS011;646;48.696;9.114;2022-12-07T05:30:29;11.40;;;6.15;;
1306;SDS011;646;48.696;9.114;2022-12-07T05:32:56;8.05;;;5.95;;
1306;SDS011;646;48.696;9.114;2022-12-07T05:35:22;12.82;;;7.50;;
1306;SDS011;646;48.696;9.114;2022-12-07T05:37:47;8.87;;;6.03;;
1306;SDS011;646;48.696;9.114;2022-12-07T05:40:14;9.80;;;6.77;;
1306;SDS011;646;48.696;9.114;2022-12-07T05:42:40;9.52;;;6.10;;
1306;SDS011;646;48.696;9.114;2022-12-07T05:45:06;9.87;;;7.10;;
1306;SDS011;646;48.696;9.114;2022-12-07T05:47:33;8.20;;;6.45;;
1306;SDS011;646;48.696;9.114;2022-12-07T05:49:59;6.40;;;5.00;;
1306;SDS011;646;48.696;9.114;2022-12-07T05:52:24;8.13;;;5.23;;
1306;SDS011;646;48.696;9.114;2022-12-07T05:54:50;5.78;;;4.60;;
1306;SDS011;646;48.696;9.114;2022-12-07T05:57:16;8.33;;;4.53;;
1306;SDS011;646;48.696;9.114;2022-12-07T05:59:42;8.27;;;5.67;;
1306;SDS011;646;48.696;9.114;2022-12-07T06:02:12;7.60;;;5.60;;
1306;SDS011;646;48.696;9.114;2022-12-07T06:04:43;6.30;;;4.55;;
1306;SDS011;646;48.696;9.114;2022-12-07T06:07:10;6.97;;;5.20;;
1306;SDS011;646;48.696;9.114;2022-12-07T06:09:38;8.07;;;6.93;;
1306;SDS011;646;48.696;9.114;2022-12-07T06:12:04;15.40;;;10.00;;
1306;SDS011;646;48.696;9.114;2022-12-07T06:14:48;11.75;;;9.00;;
1306;SDS011;646;48.696;9.114;2022-12-07T06:17:14;14.07;;;9.30;;
1306;SDS011;646;48.696;9.114;2022-12-07T06:19:40;9.20;;;7.88;;
1306;SDS011;646;48.696;9.114;2022-12-07T06:22:06;9.03;;;7.40;;
1306;SDS011;646;48.696;9.114;2022-12-07T06:24:33;8.80;;;6.25;;
1306;SDS011;646;48.696;9.114;2022-12-07T06:26:59;8.13;;;6.47;;
1306;SDS011;646;48.696;9.114;2022-12-07T06:29:25;7.50;;;6.63;;
1306;SDS011;646;48.696;9.114;2022-12-07T06:31:51;6.57;;;5.80;;
1306;SDS011;646;48.696;9.114;2022-12-07T06:34:18;8.17;;;7.13;;
1306;SDS011;646;48.696;9.114;2022-12-07T06:36:45;9.27;;;7.80;;
1306;SDS011;646;48.696;9.114;2022-12-07T06:39:12;9.00;;;7.75;;
1306;SDS011;646;48.696;9.114;2022-12-07T06:41:38;9.30;;;7.57;;
1306;SDS011;646;48.696;9.114;2022-12-07T06:44:04;8.68;;;7.47;;
1306;SDS011;646;48.696;9.114;2022-12-07T06:46:30;8.40;;;6.05;;
1306;SDS011;646;48.696;9.114;2022-12-07T06:48:56;11.30;;;7.10;;
1306;SDS011;646;48.696;9.114;2022-12-07T06:51:22;9.87;;;7.13;;
1306;SDS011;646;48.696;9.114;2022-12-07T06:53:48;9.63;;;7.50;;
1306;SDS011;646;48.696;9.114;2022-12-07T06:56:13;10.93;;;8.57;;
1306;SDS011;646;48.696;9.114;2022-12-07T06:58:39;11.70;;;9.00;;
1306;SDS011;646;48.696;9.114;2022-12-07T07:01:13;14.13;;;10.10;;
1306;SDS011;646;48.696;9.114;2022-12-07T07:03:39;19.20;;;11.02;;
1306;SDS011;646;48.696;9.114;2022-12-07T07:06:05;18.60;;;10.70;;
1306;SDS011;646;48.696;9.114;2022-12-07T07:08:32;10.35;;;7.57;;
1306;SDS011;646;48.696;9.114;2022-12-07T07:10:58;10.45;;;7.30;;
1306;SDS011;646;48.696;9.114;2022-12-07T07:13:24;12.03;;;7.30;;
1306;SDS011;646;48.696;9.114;2022-12-07T07:15:50;10.13;;;5.77;;
1306;SDS011;646;48.696;9.114;2022-12-07T07:18:15;11.53;;;7.17;;
1306;SDS011;646;48.696;9.114;2022-12-07T07:20:41;9.50;;;6.47;;
1306;SDS011;646;48.696;9.114;2022-12-07T07:23:06;9.07;;;6.87;;
1306;SDS011;646;48.696;9.114;2022-12-07T07:25:32;10.17;;;7.10;;
1306;SDS011;646;48.696;9.114;2022-12-07T07:27:57;7.97;;;6.37;;
1306;SDS011;646;48.696;9.114;2022-12-07T07:30:24;11.20;;;7.80;;
1306;SDS011;646;48.696;9.114;2022-12-07T07:32:50;9.05;;;7.25;;
1306;SDS011;646;48.696;9.114;2022-12-07T07:35:15;11.73;;;8.10;;
1306;SDS011;646;48.696;9.114;2022-12-07T07:37:41;12.00;;;7.10;;
1306;SDS011;646;48.696;9.114;2022-12-07T07:40:07;11.97;;;6.83;;
1306;SDS011;646;48.696;9.114;2022-12-07T07:42:33;9.32;;;7.40;;
1306;SDS011;646;48.696;9.114;2022-12-07T07:44:59;8.37;;;6.87;;
1306;SDS011;646;48.696;9.114;2022-12-07T07:47:25;9.37;;;6.60;;
1306;SDS011;646;48.696;9.114;2022-12-07T07:49:50;8.53;;;6.30;;
1306;SDS011;646;48.696;9.114;2022-12-07T07:52:16;9.37;;;7.20;;
1306;SDS011;646;48.696;9.114;2022-12-07T07:54:41;11.40;;;7.37;;
1306;SDS011;646;48.696;9.114;2022-12-07T07:57:07;10.33;;;7.30;;
1306;SDS011;646;48.696;9.114;2022-12-07T07:59:32;9.57;;;6.83;;
1306;SDS011;646;48.696;9.114;2022-12-07T08:01:58;10.47;;;7.60;;
1306;SDS011;646;48.696;9.114;2022-12-07T08:04:23;8.57;;;6.90;;
1306;SDS011;646;48.696;9.114;2022-12-07T08:06:49;8.43;;;6.50;;
1306;SDS011;646;48.696;9.114;2022-12-07T08:09:14;10.20;;;6.43;;
1306;SDS011;646;48.696;9.114;2022-12-07T08:11:40;7.40;;;5.60;;
1306;SDS011;646;48.696;9.114;2022-12-07T08:14:05;9.13;;;6.10;;
1306;SDS011;646;48.696;9.114;2022-12-07T08:16:31;8.90;;;6.00;;
1306;SDS011;646;48.696;9.114;2022-12-07T08:18:56;10.40;;;5.97;;
1306;SDS011;646;48.696;9.114;2022-12-07T08:21:22;9.33;;;6.30;;
1306;SDS011;646;48.696;9.114;2022-12-07T08:23:47;10.20;;;6.93;;
1306;SDS011;646;48.696;9.114;2022-12-07T08:26:15;9.20;;;6.60;;
1306;SDS011;646;48.696;9.114;2022-12-07T08:28:41;8.55;;;6.68;;
1306;SDS011;646;48.696;9.114;2022-12-07T08:31:11;9.98;;;7.38;;
1306;SDS011;646;48.696;9.114;2022-12-07T08:33:39;9.35;;;7.00;;
1306;SDS011;646;48.696;9.114;2022-12-07T08:36:08;7.78;;;6.18;;
1306;SDS011;646;48.696;9.114;2022-12-07T08:38:36;9.95;;;6.07;;
1306;SDS011;646;48.696;9.114;2022-12-07T08:41:03;9.32;;;7.45;;
1306;SDS011;646;48.696;9.114;2022-12-07T08:43:29;9.03;;;5.60;;
1306;SDS011;646;48.696;9.114;2022-12-07T08:48:36;8.45;;;6.20;;
1306;SDS011;646;48.696;9.114;2022-12-07T08:51:05;6.97;;;5.63;;
1306;SDS011;646;48.696;9.114;2022-12-07T08:53:31;7.95;;;6.30;;
1306;SDS011;646;48.696;9.114;2022-12-07T08:55:58;7.10;;;5.50;;
1306;SDS011;646;48.696;9.114;2022-12-07T08:58:24;7.47;;;5.47;;
1306;SDS011;646;48.696;9.114;2022-12-07T09:00:49;5.70;;;4.87;;
1306;SDS011;646;48.696;9.114;2022-12-07T09:03:15;9.10;;;6.83;;
1306;SDS011;646;48.696;9.114;2022-12-07T09:05:41;7.13;;;5.77;;
1306;SDS011;646;48.696;9.114;2022-12-07T09:08:06;6.67;;;4.53;;
1306;SDS011;646;48.696;9.114;2022-12-07T09:10:32;8.10;;;6.28;;
1306;SDS011;646;48.696;9.114;2022-12-07T09:12:58;9.13;;;6.50;;
1306;SDS011;646;48.696;9.114;2022-12-07T09:15:25;5.43;;;4.88;;
1306;SDS011;646;48.696;9.114;2022-12-07T09:17:54;7.70;;;5.85;;
1306;SDS011;646;48.696;9.114;2022-12-07T09:20:20;6.47;;;5.30;;
1306;SDS011;646;48.696;9.114;2022-12-07T09:22:46;6.50;;;5.30;;
1306;SDS011;646;48.696;9.114;2022-12-07T09:25:11;9.13;;;6.80;;
1306;SDS011;646;48.696;9.114;2022-12-07T09:27:37;6.33;;;4.93;;
1306;SDS011;646;48.696;9.114;2022-12-07T09:30:03;5.87;;;5.27;;
1306;SDS011;646;48.696;9.114;2022-12-07T09:32:30;6.10;;;4.50;;
1306;SDS011;646;48.696;9.114;2022-12-07T09:34:55;5.57;;;4.77;;
1306;SDS011;646;48.696;9.114;2022-12-07T09:37:21;7.63;;;5.20;;
1306;SDS011;646;48.696;9.114;2022-12-07T09:39:46;6.57;;;5.20;;
1306;SDS011;646;48.696;9.114;2022-12-07T09:42:34;7.13;;;4.93;;
1306;SDS011;646;48.696;9.114;2022-12-07T09:44:59;5.40;;;4.40;;
1306;SDS011;646;48.696;9.114;2022-12-07T09:47:26;6.03;;;4.22;;
1306;SDS011;646;48.696;9.114;2022-12-07T09:49:53;6.40;;;4.82;;
1306;SDS011;646;48.696;9.114;2022-12-07T09:52:27;6.70;;;4.82;;
1306;SDS011;646;48.696;9.114;2022-12-07T09:54:54;5.68;;;5.07;;
1306;SDS011;646;48.696;9.114;2022-12-07T09:57:21;6.57;;;5.20;;
1306;SDS011;646;48.696;9.114;2022-12-07T10:00:00;4.57;;;4.03;;
1306;SDS011;646;48.696;9.114;2022-12-07T10:05:00;6.88;;;5.43;;
1306;SDS011;646;48.696;9.114;2022-12-07T10:07:27;5.38;;;4.60;;
1306;SDS011;646;48.696;9.114;2022-12-07T10:09:54;5.82;;;4.75;;
1306;SDS011;646;48.696;9.114;2022-12-07T10:12:19;4.70;;;4.30;;
1306;SDS011;646;48.696;9.114;2022-12-07T10:15:01;5.60;;;4.80;;
1306;SDS011;646;48.696;9.114;2022-12-07T10:17:37;4.80;;;4.32;;
1306;SDS011;646;48.696;9.114;2022-12-07T10:22:37;4.40;;;4.00;;
1306;SDS011;646;48.696;9.114;2022-12-07T10:25:09;4.60;;;3.60;;
1306;SDS011;646;48.696;9.114;2022-12-07T10:27:44;6.30;;;4.63;;
1306;SDS011;646;48.696;9.114;2022-12-07T10:30:23;8.10;;;6.65;;
1306;SDS011;646;48.696;9.114;2022-12-07T10:32:48;5.57;;;4.53;;
1306;SDS011;646;48.696;9.114;2022-12-07T10:37:48;6.03;;;5.03;;
1306;SDS011;646;48.696;9.114;2022-12-07T10:40:25;5.65;;;5.05;;
1306;SDS011;646;48.696;9.114;2022-12-07T10:45:41;5.38;;;4.82;;
1306;SDS011;646;48.696;9.114;2022-12-07T10:48:16;4.70;;;3.92;;
1306;SDS011;646;48.696;9.114;2022-12-07T10:51:02;3.97;;;3.30;;
1306;SDS011;646;48.696;9.114;2022-12-07T10:53:47;6.10;;;3.75;;
1306;SDS011;646;48.696;9.114;2022-12-07T10:59:20;5.25;;;4.75;;
1306;SDS011;646;48.696;9.114;2022-12-07T11:01:54;5.00;;;4.00;;
1306;SDS011;646;48.696;9.114;2022-12-07T11:07:42;4.80;;;3.55;;
1306;SDS011;646;48.696;9.114;2022-12-07T11:15:33;4.93;;;4.40;;
1306;SDS011;646;48.696;9.114;2022-12-07T11:31:48;4.70;;;3.60;;
1306;SDS011;646;48.696;9.114;2022-12-07T11:34:37;4.10;;;3.15;;
1306;SDS011;646;48.696;9.114;2022-12-07T11:37:09;3.90;;;3.40;;
1306;SDS011;646;48.696;9.114;2022-12-07T11:39:44;4.10;;;3.70;;
1306;SDS011;646;48.696;9.114;2022-12-07T11:42:26;3.90;;;3.50;;
1306;SDS011;646;48.696;9.114;2022-12-07T11:47:55;3.55;;;3.25;;
1306;SDS011;646;48.696;9.114;2022-12-07T11:55:41;3.50;;;2.77;;
1306;SDS011;646;48.696;9.114;2022-12-07T11:58:56;4.18;;;3.22;;
1306;SDS011;646;48.696;9.114;2022-12-07T12:01:18;4.45;;;3.10;;
1306;SDS011;646;48.696;9.114;2022-12-07T12:03:53;3.80;;;3.00;;
1306;SDS011;646;48.696;9.114;2022-12-07T12:06:23;3.65;;;3.35;;
1306;SDS011;646;48.696;9.114;2022-12-07T12:19:43;2.92;;;2.63;;
1306;SDS011;646;48.696;9.114;2022-12-07T12:22:42;3.65;;;3.00;;
1306;SDS011;646;48.696;9.114;2022-12-07T12:25:18;4.75;;;3.10;;
1306;SDS011;646;48.696;9.114;2022-12-07T12:28:05;3.35;;;2.20;;
1306;SDS011;646;48.696;9.114;2022-12-07T12:30:40;3.47;;;2.80;;
1306;SDS011;646;48.696;9.114;2022-12-07T12:46:59;4.07;;;3.45;;
1306;SDS011;646;48.696;9.114;2022-12-07T12:51:54;3.37;;;3.07;;
1306;SDS011;646;48.696;9.114;2022-12-07T12:54:25;3.13;;;2.50;;
1306;SDS011;646;48.696;9.114;2022-12-07T12:56:56;2.60;;;2.40;;
1306;SDS011;646;48.696;9.114;2022-12-07T12:59:29;1.95;;;1.85;;
1306;SDS011;646;48.696;9.114;2022-12-07T13:02:07;1.80;;;1.70;;
1306;SDS011;646;48.696;9.114;2022-12-07T13:04:52;1.67;;;1.55;;
1306;SDS011;646;48.696;9.114;2022-12-07T13:15:33;3.13;;;1.63;;
1306;SDS011;646;48.696;9.114;2022-12-07T13:18:04;2.30;;;2.20;;
1306;SDS011;646;48.696;9.114;2022-12-07T13:23:10;2.92;;;2.67;;
1306;SDS011;646;48.696;9.114;2022-12-07T13:25:45;6.32;;;4.85;;
1306;SDS011;646;48.696;9.114;2022-12-07T13:28:17;4.45;;;4.05;;
1306;SDS011;646;48.696;9.114;2022-12-07T13:30:46;3.67;;;2.95;;
1306;SDS011;646;48.696;9.114;2022-12-07T13:33:28;4.63;;;3.40;;
1306;SDS011;646;48.696;9.114;2022-12-07T13:35:54;2.70;;;2.50;;
1306;SDS011;646;48.696;9.114;2022-12-07T13:38:34;2.70;;;2.50;;
1306;SDS011;646;48.696;9.114;2022-12-07T13:41:11;3.03;;;2.70;;
1306;SDS011;646;48.696;9.114;2022-12-07T13:43:51;3.05;;;2.75;;
1306;SDS011;646;48.696;9.114;2022-12-07T13:46:20;3.20;;;2.90;;
1306;SDS011;646;48.696;9.114;2022-12-07T13:48:51;5.95;;;5.43;;
1306;SDS011;646;48.696;9.114;2022-12-07T13:51:20;5.97;;;5.43;;
1306;SDS011;646;48.696;9.114;2022-12-07T13:53:48;3.60;;;3.38;;
1306;SDS011;646;48.696;9.114;2022-12-07T13:56:20;3.80;;;3.22;;
1306;SDS011;646;48.696;9.114;2022-12-07T13:58:47;4.30;;;3.92;;
1306;SDS011;646;48.696;9.114;2022-12-07T14:01:13;4.07;;;3.67;;
1306;SDS011;646;48.696;9.114;2022-12-07T14:03:39;3.67;;;3.38;;
1306;SDS011;646;48.696;9.114;2022-12-07T14:06:07;3.23;;;3.00;;
1306;SDS011;646;48.696;9.114;2022-12-07T14:11:52;3.72;;;2.60;;
1306;SDS011;646;48.696;9.114;2022-12-07T14:14:21;3.13;;;2.45;;
1306;SDS011;646;48.696;9.114;2022-12-07T14:17:11;3.67;;;3.38;;
1306;SDS011;646;48.696;9.114;2022-12-07T14:27:56;2.90;;;2.60;;
1306;SDS011;646;48.696;9.114;2022-12-07T14:30:24;3.33;;;3.13;;
1306;SDS011;646;48.696;9.114;2022-12-07T14:33:01;2.88;;;2.55;;
1306;SDS011;646;48.696;9.114;2022-12-07T14:35:28;2.70;;;2.50;;
1306;SDS011;646;48.696;9.114;2022-12-07T14:37:55;3.67;;;2.42;;
1306;SDS011;646;48.696;9.114;2022-12-07T14:40:22;2.70;;;2.50;;
1306;SDS011;646;48.696;9.114;2022-12-07T14:42:51;3.00;;;2.70;;
1306;SDS011;646;48.696;9.114;2022-12-07T14:45:31;2.47;;;2.28;;
1306;SDS011;646;48.696;9.114;2022-12-07T14:47:57;2.33;;;2.23;;
1306;SDS011;646;48.696;9.114;2022-12-07T14:50:22;2.50;;;2.30;;
1306;SDS011;646;48.696;9.114;2022-12-07T14:52:55;2.60;;;2.40;;
1306;SDS011;646;48.696;9.114;2022-12-07T14:55:28;3.05;;;2.20;;
1306;SDS011;646;48.696;9.114;2022-12-07T14:57:55;3.97;;;2.20;;
1306;SDS011;646;48.696;9.114;2022-12-07T15:00:22;2.15;;;2.05;;
1306;SDS011;646;48.696;9.114;2022-12-07T15:02:49;2.97;;;2.40;;
1306;SDS011;646;48.696;9.114;2022-12-07T15:05:16;2.25;;;2.05;;
1306;SDS011;646;48.696;9.114;2022-12-07T15:07:42;2.33;;;2.13;;
1306;SDS011;646;48.696;9.114;2022-12-07T15:10:19;2.15;;;2.05;;
1306;SDS011;646;48.696;9.114;2022-12-07T15:12:47;2.90;;;2.20;;
1306;SDS011;646;48.696;9.114;2022-12-07T15:15:13;2.30;;;2.10;;
1306;SDS011;646;48.696;9.114;2022-12-07T15:17:39;2.47;;;2.10;;
1306;SDS011;646;48.696;9.114;2022-12-07T15:20:04;2.23;;;2.13;;
1306;SDS011;646;48.696;9.114;2022-12-07T15:22:36;2.20;;;2.00;;
1306;SDS011;646;48.696;9.114;2022-12-07T15:25:28;2.58;;;2.38;;
1306;SDS011;646;48.696;9.114;2022-12-07T15:27:53;2.20;;;2.00;;
1306;SDS011;646;48.696;9.114;2022-12-07T15:30:19;3.20;;;2.23;;
1306;SDS011;646;48.696;9.114;2022-12-07T15:32:48;2.37;;;2.13;;
1306;SDS011;646;48.696;9.114;2022-12-07T15:35:14;2.10;;;2.00;;
1306;SDS011;646;48.696;9.114;2022-12-07T15:37:40;2.20;;;2.00;;
1306;SDS011;646;48.696;9.114;2022-12-07T15:40:05;2.70;;;2.10;;
1306;SDS011;646;48.696;9.114;2022-12-07T15:42:32;2.45;;;2.25;;
1306;SDS011;646;48.696;9.114;2022-12-07T15:45:00;4.50;;;4.10;;
1306;SDS011;646;48.696;9.114;2022-12-07T15:47:37;4.38;;;3.75;;
1306;SDS011;646;48.696;9.114;2022-12-07T15:50:05;8.50;;;7.78;;
1306;SDS011;646;48.696;9.114;2022-12-07T15:52:33;5.85;;;5.18;;
1306;SDS011;646;48.696;9.114;2022-12-07T15:54:59;6.37;;;5.77;;
1306;SDS011;646;48.696;9.114;2022-12-07T15:57:25;5.50;;;4.57;;
1306;SDS011;646;48.696;9.114;2022-12-07T15:59:51;5.22;;;4.45;;
1306;SDS011;646;48.696;9.114;2022-12-07T16:02:17;6.00;;;5.20;;
1306;SDS011;646;48.696;9.114;2022-12-07T16:04:42;4.87;;;4.10;;
1306;SDS011;646;48.696;9.114;2022-12-07T16:07:09;4.00;;;3.63;;
1306;SDS011;646;48.696;9.114;2022-12-07T16:09:36;4.63;;;3.97;;
1306;SDS011;646;48.696;9.114;2022-12-07T16:12:02;6.32;;;4.35;;
1306;SDS011;646;48.696;9.114;2022-12-07T16:14:28;6.40;;;4.95;;
1306;SDS011;646;48.696;9.114;2022-12-07T16:16:54;6.90;;;4.60;;
1306;SDS011;646;48.696;9.114;2022-12-07T16:19:20;6.17;;;4.47;;
1306;SDS011;646;48.696;9.114;2022-12-07T16:21:46;4.97;;;4.28;;
1306;SDS011;646;48.696;9.114;2022-12-07T16:24:11;4.10;;;3.20;;
1306;SDS011;646;48.696;9.114;2022-12-07T16:26:39;4.30;;;3.88;;
1306;SDS011;646;48.696;9.114;2022-12-07T16:29:05;5.50;;;4.13;;
1306;SDS011;646;48.696;9.114;2022-12-07T16:31:31;4.70;;;3.73;;
1306;SDS011;646;48.696;9.114;2022-12-07T16:33:57;4.50;;;3.60;;
1306;SDS011;646;48.696;9.114;2022-12-07T16:36:23;3.75;;;3.28;;
1306;SDS011;646;48.696;9.114;2022-12-07T16:38:50;4.85;;;3.90;;
1306;SDS011;646;48.696;9.114;2022-12-07T16:41:17;5.43;;;3.42;;
1306;SDS011;646;48.696;9.114;2022-12-07T16:43:43;5.57;;;3.93;;
1306;SDS011;646;48.696;9.114;2022-12-07T16:46:09;4.85;;;4.25;;
1306;SDS011;646;48.696;9.114;2022-12-07T16:48:35;4.90;;;4.17;;
1306;SDS011;646;48.696;9.114;2022-12-07T16:51:03;5.15;;;4.00;;
1306;SDS011;646;48.696;9.114;2022-12-07T16:53:30;7.15;;;5.13;;
1306;SDS011;646;48.696;9.114;2022-12-07T16:55:56;8.57;;;6.87;;
1306;SDS011;646;48.696;9.114;2022-12-07T16:58:21;6.53;;;5.53;;
1306;SDS011;646;48.696;9.114;2022-12-07T17:00:47;9.40;;;5.70;;
1306;SDS011;646;48.696;9.114;2022-12-07T17:03:13;6.50;;;4.50;;
1306;SDS011;646;48.696;9.114;2022-12-07T17:05:40;5.57;;;4.00;;
1306;SDS011;646;48.696;9.114;2022-12-07T17:08:10;6.88;;;5.10;;
1306;SDS011;646;48.696;9.114;2022-12-07T17:10:41;5.00;;;4.20;;
1306;SDS011;646;48.696;9.114;2022-12-07T17:13:08;6.28;;;4.90;;
1306;SDS011;646;48.696;9.114;2022-12-07T17:15:57;5.35;;;4.65;;
1306;SDS011;646;48.696;9.114;2022-12-07T17:18:31;7.40;;;5.15;;
1306;SDS011;646;48.696;9.114;2022-12-07T17:21:05;8.00;;;5.47;;
1306;SDS011;646;48.696;9.114;2022-12-07T17:23:33;10.27;;;6.53;;
1306;SDS011;646;48.696;9.114;2022-12-07T17:26:12;9.50;;;7.15;;
1306;SDS011;646;48.696;9.114;2022-12-07T17:28:41;7.78;;;5.43;;
1306;SDS011;646;48.696;9.114;2022-12-07T17:31:07;7.27;;;5.77;;
1306;SDS011;646;48.696;9.114;2022-12-07T17:33:34;13.30;;;9.32;;
1306;SDS011;646;48.696;9.114;2022-12-07T17:36:00;13.23;;;9.30;;
1306;SDS011;646;48.696;9.114;2022-12-07T17:38:27;19.33;;;11.43;;
1306;SDS011;646;48.696;9.114;2022-12-07T17:40:53;17.30;;;11.48;;
1306;SDS011;646;48.696;9.114;2022-12-07T17:43:19;9.50;;;7.03;;